Station info - map view · info · telemetry · weather · raw · status · beacons · messages · bulletins · browse · moving · my account
Callsign, ship name or locator: Clear       
It is possible to search using wildcards (*?) after a prefix. Example: OH*
APRS station JE6QLC-9 - show graphs
Map loading...
Comment: 145Mhz HF/50Mhz FTM400DH FT891 QRV
Mic-E message: Off duty
Location: 33°11.99' N 129°43.71' E - locator PM43UE77KX - show map - static map
2.8 miles North bearing 7° from Sasebo, Nagasaki, Japan [?]
10.1 miles Southwest bearing 243° from Imari, Saga, Japan
48.7 miles Southwest bearing 235° from Fukuoka-shi, Fukuoka, Japan
77.2 miles Southwest bearing 236° from Kitakyūshū, Fukuoka, Japan
Last position: 2019-01-14 01:55:59 EST (4d 16h43m ago)
2019-01-14 15:55:59 JST local time at Sasebo, Japan [?]
Altitude: 289 ft
Course:
Speed: 4 MPH
Device: Yaesu: FTM-400DR (rig)
Last path: JE6QLC-9>SSQQY9 via JG6YDG-2*,qAR,JG6YAF-10 (good)
Positions stored: 30634
Packet rate: 86 seconds between packets on average during 4220 seconds.
Other SSIDs: JE6QLC JE6QLC-7
Stations near current position of JE6QLC-9 - show more
callsign distance last heard - EST      callsign distance last heard - EST
JA6KHT-90.8 miles 242°2019-01-18 03:45:54 JO6ICJ-70.9 miles 42°2018-12-27 02:44:33
JI6FPP-50.9 miles 219°2018-12-21 22:23:27 JE6QLC1.9 miles 135°2019-01-02 00:39:33
JG6YDV-102.3 miles 171°2019-01-18 18:33:00 JE6BVY-93.4 miles 283°2019-01-18 17:09:39
JA6RLV-93.5 miles 236°2019-01-12 08:47:17 JL6KCK-94.3 miles 289°2019-01-18 18:06:32
JN6OYC-104.3 miles 289°2019-01-18 18:14:31 JL6KCK-74.3 miles 290°2018-12-20 04:07:07
WIR-146874.3 miles 290°2019-01-18 18:22:29 JE6QHR-74.7 miles 296°2019-01-01 01:45:53
JE6QHR-94.7 miles 295°2019-01-03 03:21:26 JO6ICJ-64.9 miles 106°2018-12-27 02:35:10
JE6QLC-75.1 miles 76°2019-01-14 00:34:05 JE6CIX-96.5 miles 344°2019-01-17 22:02:51
JK6PDN-96.5 miles 141°2019-01-17 02:12:05 JA6URN-96.7 miles 142°2019-01-17 21:10:38
JA6DWF-96.8 miles 142°2019-01-16 01:51:14 JA6DWF-56.8 miles 141°2019-01-18 07:02:19
Stations which heard JE6QLC-9 directly on radio –
callsign pkts first heard - EST last heard longest (tx => rx) longest at - EST
JA6TJY-10 6 2019-01-02 23:45:15 2019-01-03 02:19:19 PM52NX > PM52JT 25.5 miles 242° 2019-01-02 23:45:15
JH6YEF-2 28 2019-01-02 19:10:43 2019-01-14 01:21:53 PM43UE > PM52EL 60.7 miles 143° 2019-01-05 23:50:10
JG6YCB-2 1 2019-01-02 19:58:19 2019-01-02 19:58:19 PM53AG > PM53KL 53.0 miles 73° 2019-01-02 19:58:19
JG6YDA-2 2 2019-01-02 23:28:47 2019-01-02 23:32:10 PM53MA > PM53HN 47.0 miles 324° 2019-01-02 23:32:10
JF6YFU-2 11 2019-01-02 22:38:35 2019-01-03 00:31:36 PM52MV > PM53TO 55.2 miles 33° 2019-01-03 00:31:36
JG6YDK-2 70 2019-01-02 19:27:10 2019-01-13 21:26:22 PM52NX > PM53BB 59.7 miles 277° 2019-01-02 23:43:48
JG6YDV-10 50 2019-01-02 19:10:10 2019-01-14 01:51:58 PM42XW > PM43UD 20.1 miles 318° 2019-01-05 21:32:34
JA6CFI-10 8 2019-01-02 21:01:15 2019-01-03 03:20:18 PM52NX > PM53IT 59.7 miles 341° 2019-01-02 23:34:16
JG6YDG-2 109 2019-01-02 19:07:11 2019-01-14 01:55:59 PM53KD > PM43WC 58.1 miles 267° 2019-01-02 22:37:03
JE6ZFX-2 1 2019-01-02 23:39:43 2019-01-02 23:39:43 PM53NA > PM52TS 32.6 miles 118° 2019-01-02 23:39:43
JF6VRU-10 10 2019-01-02 23:33:14 2019-01-03 00:53:16 PM52MV > PM52QX 21.4 miles 70° 2019-01-03 00:53:16
JG6YAF-10 8 2019-01-02 19:23:54 2019-01-05 23:11:01 PM43VF > PM42WQ 37.5 miles 177° 2019-01-02 19:24:25
JG6NQR-10 9 2019-01-02 19:26:07 2019-01-03 05:14:06 PM43WF > PM53FQ 45.9 miles 50° 2019-01-03 05:14:06
JG6YEY-10 118 2019-01-02 19:20:57 2019-01-14 01:54:22 PM52MV > PM42XU 62.7 miles 268° 2019-01-03 00:50:05
JF6YGN-2 4 2019-01-02 22:20:01 2019-01-03 02:51:19 PM53JD > PM52AU 48.2 miles 243° 2019-01-02 22:22:23
JI6FPP-10 30 2019-01-02 20:43:37 2019-01-03 03:48:51 PM53MC > PM53GK 35.2 miles 311° 2019-01-02 23:06:26
JG6YFP-10 61 2019-01-02 23:31:00 2019-01-03 05:18:51 PM43VF > PM52MV 73.0 miles 109° 2019-01-03 05:18:51
JE6KYC-2 7 2019-01-02 19:28:11 2019-01-03 05:24:17 PM43VF > PM53FH 41.3 miles 78° 2019-01-03 05:24:17
JN6OYC-10 42 2019-01-03 05:21:01 2019-01-14 01:55:18 PM43VB > PM43TF 13.7 miles 316° 2019-01-05 23:17:05
JG6YDL-10 51 2019-01-02 19:54:13 2019-01-05 21:04:30 PM52MV > PM53DG 52.2 miles 300° 2019-01-03 00:55:40

Only position packets which were originated by the station are shown here. The range statistics show some extra long hops, because some digipeaters do not correctly add themselves to the digipeater path. Please check the raw packets.
About this site
This page shows real-time information collected from the Automatic Position Reporting System Internet network (APRS-IS). APRS is used by amateur (ham) radio operators to transmit real-time position information, weather data, telemetry and messages over the radio. A vehicle equipped with a GPS receiver, a VHF transmitter or HF transceiver and a small computer device called a tracker transmits it's location, speed and course in a small data packet, which is then received by a nearby iGate receiving site which forwards the packet on the Internet. Systems connected to the Internet can send information on the APRS-IS without a radio transmitter, or collect and display information transmitted anywhere in the world.
FAQ · Blog · Discussion group · Linking to aprs.fi · AIS sites · Service status · Database statistics · Advertising on aprs.fi · Technical details · API · Change log · Planned changes · Credits and thanks · Terms Of Service · iPhone/iPad APRS